Dragor, Denmark
Current Conditions -  °F | °C
As of 11:20 PM on Thursday 23 Oct 2014 (Local Time) from EKCH Reporting Station
Broken Clouds Broken Clouds  
Wind Chill: 11°   Ceiling: 1400
Heat Index: 11°   Visibility: 6mi
Dew Point:   Wind: 16mph
Humidity: 88%   Direction: 160°SSE
Pressure: 30.18"   Gusts: NA
Location:  55.59°N, 12.67°E
Report Text: EKCH 232120Z 16014KT 9999 SCT011 BKN014 11/09 Q1022 BECMGBKN012
Loading
Personal Weather Stations






























Interactive Weather Map
Tropical Storm Tracking
New forecast layout! Learn more

10-Day Weather Forecast

Advertisements
Track Severe Weather on mobile